createdAt,value
2022-09-11T00:00:39.952Z,47.56
2022-09-11T00:01:39.998Z,58.95
2022-09-11T00:02:39.960Z,50.17
2022-09-11T00:03:39.964Z,62.39
2022-09-11T00:04:39.951Z,41.52
2022-09-11T00:05:39.931Z,58.58
2022-09-11T00:06:39.899Z,59.18
2022-09-11T00:07:39.897Z,59.96
2022-09-11T00:08:39.881Z,61.61
2022-09-11T00:09:39.908Z,50.15
2022-09-11T00:10:39.868Z,62.13
2022-09-11T00:11:39.860Z,48.54
2022-09-11T00:12:39.857Z,61.68
2022-09-11T00:13:39.883Z,56.02
2022-09-11T00:14:39.864Z,49.00
2022-09-11T00:15:39.867Z,55.57
2022-09-11T00:16:39.824Z,51.41
2022-09-11T00:17:39.818Z,42.29
2022-09-11T00:18:39.808Z,55.65
2022-09-11T00:19:39.821Z,53.44
2022-09-11T00:20:39.882Z,48.31
2022-09-11T00:21:39.776Z,41.59
2022-09-11T00:22:39.852Z,40.51
2022-09-11T00:23:39.795Z,47.05
2022-09-11T00:24:39.777Z,45.31
2022-09-11T00:25:39.738Z,61.06
2022-09-11T00:26:39.730Z,45.21
2022-09-11T00:27:39.720Z,59.93
2022-09-11T00:28:39.726Z,41.79
2022-09-11T00:29:39.726Z,41.25
2022-09-11T00:30:39.693Z,40.78
2022-09-11T00:31:39.966Z,40.42
2022-09-11T00:32:39.675Z,55.86
2022-09-11T00:33:39.722Z,42.80
2022-09-11T00:34:39.766Z,54.62
2022-09-11T00:35:39.652Z,41.73
2022-09-11T00:36:39.643Z,53.98
2022-09-11T00:37:39.633Z,53.09
2022-09-11T00:38:39.619Z,41.17
2022-09-11T00:39:39.685Z,48.75
2022-09-11T00:40:39.621Z,44.96
2022-09-11T00:41:39.607Z,47.15
2022-09-11T00:42:39.595Z,53.96
2022-09-11T00:43:39.591Z,48.40
2022-09-11T00:44:39.598Z,41.30
2022-09-11T00:45:39.643Z,43.57
2022-09-11T00:46:39.553Z,52.98
2022-09-11T00:47:39.571Z,45.11
2022-09-11T00:48:39.541Z,52.71
2022-09-11T00:49:39.555Z,52.24
2022-09-11T00:50:39.553Z,55.54
2022-09-11T00:51:39.520Z,51.09
2022-09-11T00:52:39.507Z,49.88
2022-09-11T00:53:39.541Z,52.93
2022-09-11T00:54:39.513Z,42.77
2022-09-11T00:55:39.484Z,52.21
2022-09-11T00:56:39.476Z,41.05
2022-09-11T00:57:39.474Z,50.02
2022-09-11T00:58:39.509Z,52.16
2022-09-11T00:59:39.476Z,62.09
2022-09-11T01:00:39.688Z,45.79
2022-09-11T01:01:39.481Z,42.18
2022-09-11T01:02:39.415Z,61.14
2022-09-11T01:03:39.432Z,52.91
2022-09-11T01:04:39.440Z,58.16
2022-09-11T01:05:39.429Z,52.65
2022-09-11T01:06:39.384Z,44.23
2022-09-11T01:07:39.384Z,46.19
2022-09-11T01:08:39.439Z,41.30
2022-09-11T01:09:39.392Z,41.09
2022-09-11T01:10:39.355Z,44.13
2022-09-11T01:11:39.355Z,45.72
2022-09-11T01:12:39.338Z,52.76
2022-09-11T01:13:39.497Z,53.03
2022-09-11T01:14:39.353Z,56.20
2022-09-11T01:15:39.313Z,45.29
2022-09-11T01:16:40.330Z,45.66
2022-09-11T01:17:39.304Z,53.56
2022-09-11T01:18:39.290Z,38.51
2022-09-11T01:19:39.328Z,40.36
2022-09-11T01:20:39.268Z,40.23
2022-09-11T01:21:39.387Z,46.03
2022-09-11T01:25:04.797Z,46.32
2022-09-11T01:26:04.790Z,50.07
2022-09-11T01:27:04.812Z,48.77
2022-09-11T01:28:04.785Z,54.07
2022-09-11T01:29:04.765Z,54.57
2022-09-11T01:30:07.195Z,58.62
2022-09-11T01:31:04.805Z,47.75
2022-09-11T01:32:04.752Z,54.97
2022-09-11T01:33:05.894Z,57.37
2022-09-11T01:34:05.874Z,55.27
2022-09-11T01:35:05.888Z,60.87
2022-09-11T01:36:05.859Z,61.05
2022-09-11T01:37:05.847Z,47.95
2022-09-11T01:38:05.915Z,54.06
2022-09-11T01:39:05.831Z,56.00
2022-09-11T01:40:05.927Z,42.53
2022-09-11T01:41:05.819Z,41.33
2022-09-11T01:42:05.809Z,46.84
2022-09-11T01:43:05.788Z,62.73
2022-09-11T01:44:05.798Z,43.21
2022-09-11T01:45:05.801Z,41.99
2022-09-11T01:46:05.784Z,52.29
2022-09-11T01:47:05.757Z,55.46
2022-09-11T01:48:05.837Z,48.38
2022-09-11T01:49:05.742Z,47.48
2022-09-11T01:50:05.768Z,50.69
2022-09-11T01:51:05.731Z,55.61
2022-09-11T01:52:05.727Z,48.60
2022-09-11T01:53:05.707Z,41.64
2022-09-11T01:54:05.723Z,48.46
2022-09-11T01:55:05.728Z,41.52
2022-09-11T01:56:05.735Z,41.75
2022-09-11T01:57:05.674Z,41.68
2022-09-11T01:58:05.672Z,45.38
2022-09-11T01:59:05.678Z,65.53
2022-09-11T02:00:05.683Z,49.66
2022-09-11T02:01:05.679Z,42.32
2022-09-11T02:02:05.753Z,54.65
2022-09-11T02:03:05.636Z,55.31
2022-09-11T02:04:05.690Z,49.05
2022-09-11T02:05:05.749Z,42.69
2022-09-11T02:06:05.608Z,62.65
2022-09-11T02:07:05.678Z,47.24
2022-09-11T02:08:05.591Z,41.96
2022-09-11T02:09:05.577Z,47.70
2022-09-11T02:10:05.636Z,47.74
2022-09-11T02:11:05.567Z,49.05
2022-09-11T02:12:05.625Z,48.85
2022-09-11T02:13:05.581Z,47.65
2022-09-11T02:14:05.537Z,47.60
2022-09-11T02:15:05.764Z,47.13
2022-09-11T02:16:05.584Z,52.82
2022-09-11T02:17:05.509Z,57.63
2022-09-11T02:18:05.501Z,40.96
2022-09-11T02:19:05.493Z,43.31
2022-09-11T02:20:05.511Z,51.41
2022-09-11T02:21:05.562Z,55.28
2022-09-11T02:22:05.471Z,60.15
2022-09-11T02:23:05.463Z,56.34
2022-09-11T02:24:05.461Z,42.57
2022-09-11T02:25:05.469Z,47.64
2022-09-11T02:26:05.448Z,52.08
2022-09-11T02:27:05.428Z,59.59
2022-09-11T02:28:05.417Z,53.31
2022-09-11T02:29:05.407Z,60.61
2022-09-11T02:30:05.423Z,43.12
2022-09-11T02:31:05.477Z,45.75
2022-09-11T02:32:05.393Z,46.96
2022-09-11T02:33:05.398Z,41.99
2022-09-11T02:34:05.432Z,41.91
2022-09-11T02:35:05.384Z,58.22
2022-09-11T02:36:05.348Z,57.41
2022-09-11T02:37:05.342Z,44.08
2022-09-11T02:38:05.326Z,41.83
2022-09-11T02:39:05.320Z,44.53
2022-09-11T02:40:05.397Z,46.25
2022-09-11T02:41:05.298Z,42.17
2022-09-11T02:42:05.339Z,42.48
2022-09-11T02:43:05.282Z,46.42
2022-09-11T02:44:05.326Z,50.63
2022-09-11T02:45:05.298Z,42.15
2022-09-11T02:46:05.306Z,52.16
2022-09-11T02:47:05.285Z,44.92
2022-09-11T02:48:05.257Z,56.47
2022-09-11T02:49:05.235Z,50.25
2022-09-11T02:50:05.257Z,55.31
2022-09-11T02:51:05.233Z,48.98
2022-09-11T02:52:05.232Z,43.01
2022-09-11T02:53:05.226Z,49.40
2022-09-11T02:54:05.191Z,44.74
2022-09-11T02:55:05.237Z,41.67
2022-09-11T02:56:05.174Z,54.70
2022-09-11T02:57:05.177Z,42.50
2022-09-11T02:58:05.162Z,53.73
2022-09-11T02:59:05.148Z,39.44
2022-09-11T03:00:05.174Z,49.31
2022-09-11T03:01:05.201Z,40.79
2022-09-11T03:02:05.138Z,46.93
2022-09-11T03:03:05.141Z,52.89
2022-09-11T03:04:05.109Z,54.41
2022-09-11T03:05:05.143Z,52.50
2022-09-11T03:06:05.113Z,42.26
2022-09-11T03:07:05.084Z,48.78
2022-09-11T03:08:05.074Z,52.13
2022-09-11T03:09:05.072Z,48.32
2022-09-11T03:10:05.102Z,55.31
2022-09-11T03:11:05.061Z,48.39
2022-09-11T03:12:05.104Z,53.39
2022-09-11T03:13:05.045Z,47.87
2022-09-11T03:14:05.044Z,42.35
2022-09-11T03:15:05.060Z,46.90
2022-09-11T03:16:05.065Z,46.64
2022-09-11T03:17:05.028Z,42.28
2022-09-11T03:18:04.989Z,52.50
2022-09-11T03:19:05.016Z,41.22
2022-09-11T03:20:05.017Z,46.99
2022-09-11T03:21:04.972Z,44.18
2022-09-11T03:22:04.972Z,51.59
2022-09-11T03:23:04.957Z,52.57
2022-09-11T03:24:04.950Z,43.67
2022-09-11T03:25:04.975Z,45.15
2022-09-11T03:26:04.935Z,58.68
2022-09-11T03:27:04.921Z,50.54
2022-09-11T03:28:04.913Z,44.64
2022-09-11T03:29:04.903Z,52.54
2022-09-11T03:30:04.893Z,41.31
2022-09-11T03:31:04.944Z,48.90
2022-09-11T03:32:04.907Z,60.19
2022-09-11T03:33:04.874Z,45.22
2022-09-11T03:34:04.863Z,59.13
2022-09-11T03:35:04.899Z,46.90
2022-09-11T03:36:04.867Z,47.80
2022-09-11T03:37:05.845Z,56.17
2022-09-11T03:38:04.842Z,53.53
2022-09-11T03:39:04.829Z,48.01
2022-09-11T03:40:04.869Z,47.52
2022-09-11T03:41:04.844Z,55.27
2022-09-11T03:42:04.800Z,44.29
2022-09-11T03:43:04.787Z,41.62
2022-09-11T03:44:04.778Z,49.67
2022-09-11T03:45:04.770Z,49.51
2022-09-11T03:46:04.850Z,42.18
2022-09-11T03:47:04.755Z,54.47
2022-09-11T03:48:04.766Z,52.48
2022-09-11T03:49:04.738Z,56.83
2022-09-11T03:50:04.731Z,55.18
2022-09-11T03:51:04.750Z,42.07
2022-09-11T03:52:04.715Z,48.20
2022-09-11T03:53:04.710Z,49.45
2022-09-11T03:54:04.737Z,59.15
2022-09-11T03:55:04.691Z,57.80
2022-09-11T03:56:04.714Z,46.28
2022-09-11T03:57:04.670Z,62.19
2022-09-11T03:58:04.666Z,44.45
2022-09-11T03:59:04.654Z,41.66
2022-09-11T04:00:04.645Z,51.24
2022-09-11T04:01:04.704Z,55.25
2022-09-11T04:02:04.674Z,46.86
2022-09-11T04:03:04.622Z,53.28
2022-09-11T04:04:04.647Z,65.48
2022-09-11T04:05:04.680Z,43.77
2022-09-11T04:06:04.624Z,46.76
2022-09-11T04:07:04.633Z,41.54
2022-09-11T04:08:04.585Z,57.28
2022-09-11T04:09:04.583Z,41.99
2022-09-11T04:10:04.599Z,40.56
2022-09-11T04:11:04.588Z,40.85
2022-09-11T04:12:04.556Z,52.42
2022-09-11T04:13:04.553Z,57.87
2022-09-11T04:14:04.545Z,41.90
2022-09-11T04:15:04.579Z,42.41
2022-09-11T04:16:04.634Z,54.16
2022-09-11T04:17:04.517Z,53.38
2022-09-11T04:18:05.678Z,40.78
2022-09-11T04:19:05.488Z,53.23
2022-09-11T04:20:04.490Z,48.72
2022-09-11T04:21:04.518Z,57.56
2022-09-11T04:22:04.476Z,58.58
2022-09-11T04:23:04.479Z,41.09
2022-09-11T04:24:04.447Z,40.60
2022-09-11T04:25:04.440Z,48.11
2022-09-11T04:26:04.498Z,58.76
2022-09-11T04:27:04.426Z,51.92
2022-09-11T04:28:04.418Z,43.70
2022-09-11T04:29:04.418Z,54.06
2022-09-11T04:30:04.415Z,58.45
2022-09-11T04:31:04.426Z,41.78
2022-09-11T04:32:04.388Z,62.01
2022-09-11T04:33:04.383Z,51.16
2022-09-11T04:34:04.372Z,40.68
2022-09-11T04:35:04.360Z,51.63
2022-09-11T04:36:04.385Z,60.01
2022-09-11T04:37:04.342Z,61.24
2022-09-11T04:38:04.338Z,41.69
2022-09-11T04:39:04.331Z,39.73
2022-09-11T04:40:04.485Z,51.08
2022-09-11T04:41:04.351Z,48.83
2022-09-11T04:42:04.311Z,52.97
2022-09-11T04:43:04.294Z,58.49
2022-09-11T04:44:05.679Z,54.06
2022-09-11T04:45:05.302Z,59.65
2022-09-11T04:46:04.387Z,50.72
2022-09-11T04:47:04.280Z,42.22
2022-09-11T04:48:04.266Z,55.90
2022-09-11T04:49:04.262Z,47.20
2022-09-11T04:50:04.250Z,47.09
2022-09-11T04:51:04.265Z,52.36
2022-09-11T04:52:04.224Z,50.87
2022-09-11T04:53:04.286Z,58.32
2022-09-11T04:54:04.199Z,52.25
2022-09-11T04:55:04.292Z,55.11
2022-09-11T04:56:04.224Z,46.50
2022-09-11T04:57:04.177Z,48.94
2022-09-11T04:58:04.168Z,44.52
2022-09-11T04:59:04.165Z,65.13
2022-09-11T05:00:04.151Z,55.71
2022-09-11T05:01:04.317Z,46.97
2022-09-11T05:02:04.237Z,43.54
2022-09-11T05:03:04.122Z,54.11
2022-09-11T05:04:04.119Z,58.09
2022-09-11T05:05:04.112Z,52.25
2022-09-11T05:06:04.130Z,57.57
2022-09-11T05:07:04.089Z,47.86
2022-09-11T05:08:04.087Z,51.54
2022-09-11T05:09:04.081Z,53.96
2022-09-11T05:10:04.072Z,44.03
2022-09-11T05:11:04.088Z,41.72
2022-09-11T05:12:04.070Z,56.65
2022-09-11T05:13:04.037Z,49.01
2022-09-11T05:14:04.031Z,43.37
2022-09-11T05:15:04.016Z,60.26
2022-09-11T05:16:05.113Z,49.47
2022-09-11T05:17:04.001Z,52.26
2022-09-11T05:18:04.000Z,53.15
2022-09-11T05:19:03.984Z,52.34
2022-09-11T05:20:06.628Z,55.36
2022-09-11T05:21:03.996Z,50.10
2022-09-11T05:22:03.966Z,51.51
2022-09-11T05:23:03.946Z,63.27
2022-09-11T05:24:03.950Z,47.81
2022-09-11T05:25:03.944Z,49.28
2022-09-11T05:26:04.005Z,43.92
2022-09-11T05:27:03.921Z,47.36
2022-09-11T05:28:03.909Z,54.22
2022-09-11T05:29:04.004Z,52.32
2022-09-11T05:30:03.896Z,47.68
2022-09-11T05:31:03.923Z,48.90
2022-09-11T05:32:03.909Z,59.73
2022-09-11T05:33:03.877Z,52.81
2022-09-11T05:34:03.854Z,45.18
2022-09-11T05:35:03.847Z,49.08
2022-09-11T05:36:03.884Z,61.94
2022-09-11T05:37:03.829Z,50.64
2022-09-11T05:38:03.834Z,51.78
2022-09-11T05:39:03.830Z,60.76
2022-09-11T05:40:03.846Z,61.34
2022-09-11T05:41:03.836Z,49.91
2022-09-11T05:42:03.830Z,49.85
2022-09-11T05:43:03.797Z,47.45
2022-09-11T05:44:03.787Z,52.69
2022-09-11T05:45:03.775Z,49.39
2022-09-11T05:46:03.837Z,51.19
2022-09-11T05:47:03.774Z,51.98
2022-09-11T05:48:03.752Z,47.19
2022-09-11T05:49:03.759Z,56.29
2022-09-11T05:50:03.731Z,60.65
2022-09-11T05:51:03.714Z,49.67
2022-09-11T05:52:03.742Z,58.62
2022-09-11T05:53:03.694Z,46.68
2022-09-11T05:54:03.689Z,55.63
2022-09-11T05:55:03.709Z,48.11
2022-09-11T05:56:03.689Z,50.15
2022-09-11T05:57:07.618Z,52.48
2022-09-11T05:58:04.657Z,54.04
2022-09-11T05:59:03.651Z,47.76
2022-09-11T06:00:03.656Z,51.19
2022-09-11T06:01:03.656Z,46.03
2022-09-11T06:02:03.698Z,50.75
2022-09-11T06:03:03.656Z,62.17
2022-09-11T06:04:03.607Z,54.52
2022-09-11T06:05:03.612Z,58.50
2022-09-11T06:06:03.626Z,63.44
2022-09-11T06:07:03.615Z,57.09
2022-09-11T06:08:03.590Z,60.45
2022-09-11T06:09:03.562Z,59.22
2022-09-11T06:10:03.656Z,60.66
2022-09-11T06:11:03.558Z,63.39
2022-09-11T06:12:03.585Z,47.41
2022-09-11T06:13:03.569Z,54.08
2022-09-11T06:14:03.538Z,56.50
2022-09-11T06:15:03.516Z,56.67
2022-09-11T06:16:03.506Z,49.40
2022-09-11T06:17:03.526Z,63.47
2022-09-11T06:18:03.498Z,54.51
2022-09-11T06:19:03.475Z,51.91
2022-09-11T06:20:03.469Z,55.46
2022-09-11T06:21:03.525Z,47.34
2022-09-11T06:22:03.477Z,60.68
2022-09-11T06:23:07.335Z,47.04
2022-09-11T06:24:05.573Z,61.10
2022-09-11T06:25:03.428Z,56.57
2022-09-11T06:26:03.419Z,50.29
2022-09-11T06:27:03.444Z,59.19
2022-09-11T06:28:03.407Z,54.23
2022-09-11T06:29:03.396Z,63.37
2022-09-11T06:30:03.392Z,58.86
2022-09-11T06:31:03.401Z,53.11
2022-09-11T06:32:03.402Z,50.49
2022-09-11T06:33:03.363Z,59.71
2022-09-11T06:34:03.348Z,48.11
2022-09-11T06:35:03.340Z,59.26
2022-09-11T06:36:03.336Z,59.49
2022-09-11T06:37:03.361Z,52.77
2022-09-11T06:38:03.322Z,61.14
2022-09-11T06:39:03.315Z,63.77
2022-09-11T06:40:03.360Z,56.62
2022-09-11T06:41:03.294Z,59.81
2022-09-11T06:42:03.324Z,64.32
2022-09-11T06:43:03.275Z,52.21
2022-09-11T06:44:03.269Z,50.26
2022-09-11T06:45:03.265Z,55.10
2022-09-11T06:46:03.365Z,63.78
2022-09-11T06:47:03.272Z,61.75
2022-09-11T06:48:03.261Z,55.75
2022-09-11T06:49:03.227Z,58.13
2022-09-11T06:50:03.435Z,58.21
2022-09-11T06:51:03.224Z,59.25
2022-09-11T06:52:03.232Z,59.18
2022-09-11T06:53:03.196Z,56.47
2022-09-11T06:54:03.185Z,61.23
2022-09-11T06:55:03.172Z,57.23
2022-09-11T06:56:03.167Z,51.12
2022-09-11T06:57:03.193Z,61.80
2022-09-11T06:58:03.171Z,62.92
2022-09-11T06:59:03.146Z,56.64
2022-09-11T07:00:03.131Z,58.11
2022-09-11T07:01:04.235Z,61.08
2022-09-11T07:02:03.204Z,61.30
2022-09-11T07:03:03.105Z,58.44
2022-09-11T07:04:03.103Z,56.88
2022-09-11T07:05:03.095Z,59.14
2022-09-11T07:06:03.094Z,62.32
2022-09-11T07:07:03.115Z,55.90
2022-09-11T07:08:03.078Z,55.09
2022-09-11T07:09:03.093Z,52.78
2022-09-11T07:10:03.107Z,60.95
2022-09-11T07:11:03.051Z,60.29
2022-09-11T07:12:03.275Z,54.79
2022-09-11T07:13:03.047Z,53.54
2022-09-11T07:14:03.026Z,62.37
2022-09-11T07:15:03.039Z,56.58
2022-09-11T07:16:03.011Z,52.79
2022-09-11T07:17:03.025Z,65.24
2022-09-11T07:18:03.012Z,59.33
2022-09-11T07:19:02.982Z,53.81
2022-09-11T07:20:02.983Z,63.39
2022-09-11T07:21:02.967Z,59.97
2022-09-11T07:22:02.986Z,61.74
2022-09-11T07:23:02.949Z,56.35
2022-09-11T07:24:02.938Z,59.71
2022-09-11T07:25:07.100Z,68.17
2022-09-11T07:26:03.930Z,60.60
2022-09-11T07:27:02.936Z,57.39
2022-09-11T07:28:02.906Z,61.19
2022-09-11T07:29:02.898Z,60.97
2022-09-11T07:30:02.888Z,62.06
2022-09-11T07:31:02.907Z,58.55
2022-09-11T07:32:02.899Z,61.38
2022-09-11T07:33:02.869Z,61.02
2022-09-11T07:34:02.869Z,60.77
2022-09-11T07:35:02.859Z,63.15
2022-09-11T07:36:02.865Z,53.81
2022-09-11T07:37:02.872Z,60.46
2022-09-11T07:38:02.829Z,64.60
2022-09-11T07:39:02.815Z,55.54
2022-09-11T07:40:02.852Z,55.24
2022-09-11T07:41:02.805Z,64.60
2022-09-11T07:42:02.822Z,58.49
2022-09-11T07:43:02.788Z,59.27
2022-09-11T07:44:02.780Z,61.96
2022-09-11T07:45:02.770Z,61.41
2022-09-11T07:46:02.814Z,61.92
2022-09-11T07:47:02.782Z,63.60
2022-09-11T07:48:02.747Z,61.56
2022-09-11T07:49:02.741Z,55.43
2022-09-11T07:50:02.772Z,61.97
2022-09-11T07:51:02.721Z,63.35
2022-09-11T07:52:02.752Z,57.53
2022-09-11T07:53:02.705Z,60.70
2022-09-11T07:54:02.691Z,60.43
2022-09-11T07:55:02.691Z,60.64
2022-09-11T07:56:02.685Z,57.86
2022-09-11T07:57:02.715Z,56.90
2022-09-11T07:58:02.684Z,56.86
2022-09-11T07:59:02.658Z,65.45
2022-09-11T08:00:02.647Z,69.68
2022-09-11T08:01:02.642Z,61.25
2022-09-11T08:02:02.715Z,60.17
2022-09-11T08:03:02.649Z,60.02
2022-09-11T08:04:02.616Z,61.63
2022-09-11T08:05:02.613Z,65.42
2022-09-11T08:06:02.602Z,59.01
2022-09-11T08:07:02.619Z,61.23
2022-09-11T08:08:02.583Z,64.27
2022-09-11T08:09:02.583Z,66.12
2022-09-11T08:10:26.202Z,61.85
2022-09-11T08:11:04.552Z,65.20
2022-09-11T08:12:02.579Z,59.14
2022-09-11T08:13:02.573Z,56.98
2022-09-11T08:14:02.522Z,66.12
2022-09-11T08:15:02.524Z,64.68
2022-09-11T08:16:02.505Z,60.28
2022-09-11T08:17:02.512Z,58.99
2022-09-11T08:18:02.529Z,63.85
2022-09-11T08:19:02.489Z,57.07
2022-09-11T08:20:02.488Z,64.17
2022-09-11T08:21:02.473Z,64.28
2022-09-11T08:22:02.462Z,59.20
2022-09-11T08:23:02.479Z,66.05
2022-09-11T08:24:02.446Z,64.34
2022-09-11T08:25:02.435Z,63.19
2022-09-11T08:26:02.438Z,57.50
2022-09-11T08:27:02.425Z,63.35
2022-09-11T08:28:02.453Z,61.93
2022-09-11T08:29:02.415Z,62.91
2022-09-11T08:30:02.398Z,67.66
2022-09-11T08:31:02.420Z,60.03
2022-09-11T08:32:02.637Z,58.89
2022-09-11T08:33:03.408Z,61.73
2022-09-11T08:34:02.370Z,65.52
2022-09-11T08:35:02.359Z,62.85
2022-09-11T08:36:02.360Z,62.90
2022-09-11T08:37:02.351Z,65.33
2022-09-11T08:38:02.359Z,61.28
2022-09-11T08:39:03.347Z,61.25
2022-09-11T08:40:02.335Z,65.67
2022-09-11T08:41:02.307Z,63.74
2022-09-11T08:42:03.305Z,58.73
2022-09-11T08:43:02.327Z,58.13
2022-09-11T08:44:02.293Z,59.82
2022-09-11T08:45:02.351Z,62.26
2022-09-11T08:46:02.325Z,62.71
2022-09-11T08:47:02.267Z,66.15
2022-09-11T08:48:02.285Z,64.16
2022-09-11T08:49:02.253Z,62.04
2022-09-11T08:50:02.240Z,62.82
2022-09-11T08:51:02.236Z,64.38
2022-09-11T08:52:02.222Z,62.43
2022-09-11T08:53:02.250Z,62.39
2022-09-11T08:54:02.213Z,65.09
2022-09-11T08:55:02.207Z,59.09
2022-09-11T08:56:02.197Z,61.62
2022-09-11T08:57:02.204Z,62.79
2022-09-11T08:58:02.213Z,66.06
2022-09-11T08:59:02.177Z,57.82
2022-09-11T09:00:02.163Z,61.44
2022-09-11T09:01:02.253Z,67.01
2022-09-11T09:02:02.188Z,60.34
2022-09-11T09:03:02.169Z,60.99
2022-09-11T09:04:02.130Z,58.65
2022-09-11T09:05:02.126Z,63.45
2022-09-11T09:06:02.118Z,65.63
2022-09-11T09:07:02.103Z,64.05
2022-09-11T09:08:02.137Z,64.01
2022-09-11T09:09:02.179Z,64.69
2022-09-11T09:10:02.077Z,61.56
2022-09-11T09:11:02.077Z,57.76
2022-09-11T09:12:02.079Z,66.93
2022-09-11T09:13:02.095Z,61.20
2022-09-11T09:14:02.045Z,53.28
2022-09-11T09:15:02.039Z,65.31
2022-09-11T09:16:02.117Z,62.72
2022-09-11T09:17:02.024Z,60.79
2022-09-11T09:18:02.066Z,57.48
2022-09-11T09:19:02.014Z,64.68
2022-09-11T09:20:02.005Z,59.34
2022-09-11T09:21:01.997Z,57.36
2022-09-11T09:22:02.002Z,68.84
2022-09-11T09:23:02.002Z,65.20
2022-09-11T09:24:01.970Z,57.90
2022-09-11T09:25:01.972Z,64.87
2022-09-11T09:26:01.945Z,65.07
2022-09-11T09:27:01.942Z,64.13
2022-09-11T09:28:01.962Z,62.82
2022-09-11T09:29:01.924Z,58.21
2022-09-11T09:30:01.917Z,60.28
2022-09-11T09:31:01.942Z,56.81
2022-09-11T09:32:01.898Z,68.75
2022-09-11T09:33:01.917Z,61.07
2022-09-11T09:34:01.880Z,58.74
2022-09-11T09:35:01.877Z,63.71
2022-09-11T09:36:01.866Z,64.94
2022-09-11T09:37:01.860Z,64.11
2022-09-11T09:38:01.886Z,60.54
2022-09-11T09:39:01.847Z,61.43
2022-09-11T09:40:01.929Z,64.76
2022-09-11T09:41:01.840Z,65.28
2022-09-11T09:42:01.818Z,68.59
2022-09-11T09:43:01.853Z,60.60
2022-09-11T09:44:01.805Z,57.31
2022-09-11T09:45:01.798Z,67.11
2022-09-11T09:46:01.856Z,61.54
2022-09-11T09:47:01.778Z,64.23
2022-09-11T09:48:01.801Z,66.45
2022-09-11T09:49:01.764Z,62.60
2022-09-11T09:50:01.755Z,65.68
2022-09-11T09:51:01.743Z,63.32
2022-09-11T09:52:04.380Z,62.20
2022-09-11T09:53:02.755Z,63.15
2022-09-11T09:54:01.775Z,60.10
2022-09-11T09:55:01.698Z,67.68
2022-09-11T09:56:02.704Z,63.82
2022-09-11T09:57:01.697Z,61.13
2022-09-11T09:58:01.686Z,62.83
2022-09-11T09:59:01.730Z,62.63
2022-09-11T10:00:02.658Z,63.39
2022-09-11T10:01:02.712Z,67.56
2022-09-11T10:02:01.719Z,58.67
2022-09-11T10:03:01.673Z,67.53
2022-09-11T10:04:01.638Z,68.74
2022-09-11T10:05:01.630Z,64.39
2022-09-11T10:06:01.621Z,64.18
2022-09-11T10:07:01.616Z,64.08
2022-09-11T10:08:01.630Z,60.18
2022-09-11T10:09:03.575Z,69.36
2022-09-11T10:10:02.594Z,64.72
2022-09-11T10:11:01.577Z,65.52
2022-09-11T10:12:01.570Z,63.82
2022-09-11T10:13:18.144Z,68.17
2022-09-11T10:14:03.550Z,64.94
2022-09-11T10:15:01.546Z,62.93
2022-09-11T10:16:01.615Z,59.98
2022-09-11T10:17:01.528Z,66.76
2022-09-11T10:18:01.550Z,64.42
2022-09-11T10:19:01.511Z,66.16
2022-09-11T10:20:01.500Z,62.95
2022-09-11T10:21:02.017Z,63.15
2022-09-11T10:22:02.483Z,65.88
2022-09-11T10:23:01.505Z,67.17
2022-09-11T10:24:01.470Z,63.06
2022-09-11T10:25:01.464Z,67.22
2022-09-11T10:26:01.456Z,64.97
2022-09-11T10:27:01.442Z,64.56
2022-09-11T10:28:01.461Z,68.82
2022-09-11T10:29:01.436Z,66.70
2022-09-11T10:30:01.416Z,63.68
2022-09-11T10:31:01.433Z,64.16
2022-09-11T10:32:01.397Z,67.69
2022-09-11T10:33:03.670Z,63.50
2022-09-11T10:34:02.391Z,66.12
2022-09-11T10:35:01.377Z,64.25
2022-09-11T10:36:01.380Z,67.35
2022-09-11T10:37:01.370Z,63.77
2022-09-11T10:38:01.352Z,59.47
2022-09-11T10:39:01.373Z,59.59
2022-09-11T10:40:01.355Z,66.08
2022-09-11T10:41:01.328Z,64.57
2022-09-11T10:42:01.323Z,63.42
2022-09-11T10:43:01.437Z,64.96
2022-09-11T10:44:01.299Z,64.41
2022-09-11T10:45:01.298Z,61.52
2022-09-11T10:46:01.350Z,62.65
2022-09-11T10:47:01.278Z,66.56
2022-09-11T10:48:01.272Z,68.39
2022-09-11T10:49:01.297Z,65.55
2022-09-11T10:50:01.252Z,66.61
2022-09-11T10:51:01.251Z,64.03
2022-09-11T10:52:01.265Z,65.69
2022-09-11T10:53:01.240Z,60.89
2022-09-11T10:54:01.257Z,60.17
2022-09-11T10:55:01.214Z,66.02
2022-09-11T10:56:01.201Z,69.55
2022-09-11T10:57:01.207Z,67.80
2022-09-11T10:58:01.189Z,63.15
2022-09-11T10:59:01.212Z,67.11
2022-09-11T11:00:01.179Z,63.97
2022-09-11T11:01:01.167Z,60.01
2022-09-11T11:02:01.193Z,64.12
2022-09-11T11:03:01.158Z,66.11
2022-09-11T11:04:01.182Z,65.22
2022-09-11T11:05:01.137Z,63.30
2022-09-11T11:06:01.138Z,62.26
2022-09-11T11:07:01.123Z,63.77
2022-09-11T11:08:01.127Z,70.23
2022-09-11T11:09:01.144Z,60.77
2022-09-11T11:10:07.597Z,61.50
2022-09-11T11:11:02.107Z,66.21
2022-09-11T11:12:01.088Z,70.04
2022-09-11T11:13:01.085Z,57.72
2022-09-11T11:14:01.103Z,67.16
2022-09-11T11:15:01.061Z,63.78
2022-09-11T11:16:01.095Z,67.57
2022-09-11T11:17:01.044Z,67.93
2022-09-11T11:18:01.030Z,62.34
2022-09-11T11:19:01.054Z,63.55
2022-09-11T11:20:01.021Z,65.13
2022-09-11T11:21:01.013Z,66.23
2022-09-11T11:22:01.009Z,63.35
2022-09-11T11:23:00.994Z,62.83
2022-09-11T11:24:01.018Z,66.68
2022-09-11T11:25:00.983Z,67.32
2022-09-11T11:26:00.968Z,65.63
2022-09-11T11:27:00.965Z,60.06
2022-09-11T11:28:00.956Z,63.73
2022-09-11T11:29:00.982Z,65.12
2022-09-11T11:30:00.943Z,59.36
2022-09-11T11:31:00.985Z,64.49
2022-09-11T11:32:00.938Z,64.79
2022-09-11T11:33:00.927Z,63.81
2022-09-11T11:34:00.943Z,68.01
2022-09-11T11:35:00.898Z,60.30
2022-09-11T11:36:00.898Z,63.06
2022-09-11T11:37:00.884Z,63.62
2022-09-11T11:38:00.873Z,69.22
2022-09-11T11:39:00.869Z,63.11
2022-09-11T11:40:00.908Z,57.68
2022-09-11T11:41:00.852Z,61.85
2022-09-11T11:42:00.842Z,68.12
2022-09-11T11:43:00.850Z,65.09
2022-09-11T11:44:00.830Z,62.37
2022-09-11T11:45:00.858Z,62.57
2022-09-11T11:46:00.855Z,68.42
2022-09-11T11:47:00.804Z,64.96
2022-09-11T11:48:00.803Z,63.38
2022-09-11T11:49:00.791Z,65.64
2022-09-11T11:50:00.816Z,60.42
2022-09-11T11:51:00.790Z,65.84
2022-09-11T11:52:00.770Z,60.75
2022-09-11T11:53:00.760Z,60.32
2022-09-11T11:54:00.788Z,65.90
2022-09-11T11:55:00.753Z,67.15
2022-09-11T11:56:00.733Z,68.88
2022-09-11T11:57:00.728Z,57.90
2022-09-11T11:58:00.745Z,67.25
2022-09-11T11:59:00.744Z,64.47
2022-09-11T12:00:00.704Z,66.09
2022-09-11T12:01:00.702Z,63.51
2022-09-11T12:02:00.714Z,64.23
2022-09-11T12:03:00.674Z,67.06
2022-09-11T12:04:00.704Z,64.19
2022-09-11T12:05:00.668Z,62.54
2022-09-11T12:06:00.655Z,65.06
2022-09-11T12:07:00.656Z,60.01
2022-09-11T12:08:00.650Z,66.08
2022-09-11T12:09:00.666Z,63.92
2022-09-11T12:10:00.630Z,60.25
2022-09-11T12:11:00.627Z,67.21
2022-09-11T12:12:00.616Z,62.14
2022-09-11T12:13:00.618Z,64.31
2022-09-11T12:14:00.630Z,63.12
2022-09-11T12:15:00.606Z,67.01
2022-09-11T12:16:00.615Z,63.54
2022-09-11T12:17:00.573Z,63.71
2022-09-11T12:18:00.571Z,63.24
2022-09-11T12:19:00.588Z,62.87
2022-09-11T12:20:00.552Z,68.35
2022-09-11T12:21:00.543Z,60.24
2022-09-11T12:22:00.544Z,63.64
2022-09-11T12:23:00.539Z,68.52
2022-09-11T12:24:00.554Z,61.67
2022-09-11T12:25:00.527Z,62.43
2022-09-11T12:26:00.520Z,62.80
2022-09-11T12:27:00.511Z,68.55
2022-09-11T12:28:00.503Z,62.95
2022-09-11T12:29:00.526Z,66.34
2022-09-11T12:30:00.485Z,60.07
2022-09-11T12:31:00.516Z,66.02
2022-09-11T12:32:00.480Z,64.80
2022-09-11T12:33:00.465Z,64.11
2022-09-11T12:34:00.520Z,63.16
2022-09-11T12:35:00.460Z,63.24
2022-09-11T12:36:00.446Z,63.08
2022-09-11T12:37:00.459Z,61.78
2022-09-11T12:38:00.436Z,62.78
2022-09-11T12:39:00.453Z,64.24
2022-09-11T12:40:00.490Z,66.23
2022-09-11T12:41:00.420Z,61.90
2022-09-11T12:42:00.412Z,66.54
2022-09-11T12:43:00.396Z,63.75
2022-09-11T12:44:00.401Z,65.88
2022-09-11T12:45:00.427Z,66.06
2022-09-11T12:46:00.455Z,62.68
2022-09-11T12:47:00.462Z,60.91
2022-09-11T12:48:00.364Z,63.43
2022-09-11T12:49:20.905Z,59.31
2022-09-11T12:50:02.382Z,65.10
2022-09-11T12:51:00.350Z,60.32
2022-09-11T12:52:00.327Z,67.81
2022-09-11T12:53:01.332Z,55.96
2022-09-11T12:54:00.328Z,62.38
2022-09-11T12:55:00.352Z,58.41